sensor_id;sensor_type;location;lat;lon;timestamp;P1;durP1;ratioP1;P2;durP2;ratioP2
17372;SDS011;8803;48.116;11.590;2024-01-15T00:00:05;4.73;;;3.00;;
17372;SDS011;8803;48.116;11.590;2024-01-15T00:02:12;4.23;;;3.47;;
17372;SDS011;8803;48.116;11.590;2024-01-15T00:04:25;5.23;;;3.53;;
17372;SDS011;8803;48.116;11.590;2024-01-15T00:06:30;7.77;;;3.97;;
17372;SDS011;8803;48.116;11.590;2024-01-15T00:08:43;6.17;;;4.07;;
17372;SDS011;8803;48.116;11.590;2024-01-15T00:10:47;8.37;;;4.30;;
17372;SDS011;8803;48.116;11.590;2024-01-15T00:13:00;4.33;;;3.30;;
17372;SDS011;8803;48.116;11.590;2024-01-15T00:15:07;6.13;;;3.60;;
17372;SDS011;8803;48.116;11.590;2024-01-15T00:17:20;4.80;;;3.57;;
17372;SDS011;8803;48.116;11.590;2024-01-15T00:19:24;5.63;;;3.93;;
17372;SDS011;8803;48.116;11.590;2024-01-15T00:21:29;6.87;;;3.80;;
17372;SDS011;8803;48.116;11.590;2024-01-15T00:23:34;5.97;;;4.47;;
17372;SDS011;8803;48.116;11.590;2024-01-15T00:25:47;5.87;;;4.03;;
17372;SDS011;8803;48.116;11.590;2024-01-15T00:27:53;6.20;;;4.50;;
17372;SDS011;8803;48.116;11.590;2024-01-15T00:30:08;6.97;;;4.67;;
17372;SDS011;8803;48.116;11.590;2024-01-15T00:32:14;7.77;;;4.80;;
17372;SDS011;8803;48.116;11.590;2024-01-15T00:34:27;6.23;;;4.60;;
17372;SDS011;8803;48.116;11.590;2024-01-15T00:36:32;7.50;;;4.87;;
17372;SDS011;8803;48.116;11.590;2024-01-15T00:38:45;9.43;;;4.80;;
17372;SDS011;8803;48.116;11.590;2024-01-15T00:40:50;7.43;;;4.60;;
17372;SDS011;8803;48.116;11.590;2024-01-15T00:43:04;6.57;;;4.60;;
17372;SDS011;8803;48.116;11.590;2024-01-15T00:45:10;7.50;;;5.03;;
17372;SDS011;8803;48.116;11.590;2024-01-15T00:47:23;7.13;;;4.93;;
17372;SDS011;8803;48.116;11.590;2024-01-15T00:49:28;8.13;;;5.07;;
17372;SDS011;8803;48.116;11.590;2024-01-15T00:51:41;8.27;;;5.40;;
17372;SDS011;8803;48.116;11.590;2024-01-15T00:53:46;9.60;;;5.63;;
17372;SDS011;8803;48.116;11.590;2024-01-15T00:55:59;8.77;;;5.57;;
17372;SDS011;8803;48.116;11.590;2024-01-15T00:58:04;7.37;;;5.33;;
17372;SDS011;8803;48.116;11.590;2024-01-15T01:00:10;8.77;;;5.97;;
17372;SDS011;8803;48.116;11.590;2024-01-15T01:02:17;8.70;;;5.23;;
17372;SDS011;8803;48.116;11.590;2024-01-15T01:04:30;9.50;;;5.10;;
17372;SDS011;8803;48.116;11.590;2024-01-15T01:06:35;7.30;;;5.30;;
17372;SDS011;8803;48.116;11.590;2024-01-15T01:08:48;6.87;;;5.57;;
17372;SDS011;8803;48.116;11.590;2024-01-15T01:10:52;9.90;;;7.10;;
17372;SDS011;8803;48.116;11.590;2024-01-15T01:13:06;8.27;;;6.03;;
17372;SDS011;8803;48.116;11.590;2024-01-15T01:15:10;9.67;;;6.60;;
17372;SDS011;8803;48.116;11.590;2024-01-15T01:17:15;10.73;;;6.93;;
17372;SDS011;8803;48.116;11.590;2024-01-15T01:19:20;10.03;;;6.60;;
17372;SDS011;8803;48.116;11.590;2024-01-15T01:21:33;10.57;;;7.00;;
17372;SDS011;8803;48.116;11.590;2024-01-15T01:23:37;12.27;;;7.63;;
17372;SDS011;8803;48.116;11.590;2024-01-15T01:25:50;10.50;;;7.00;;
17372;SDS011;8803;48.116;11.590;2024-01-15T01:27:55;11.23;;;7.00;;
17372;SDS011;8803;48.116;11.590;2024-01-15T01:30:09;13.23;;;8.17;;
17372;SDS011;8803;48.116;11.590;2024-01-15T01:32:14;12.93;;;8.37;;
17372;SDS011;8803;48.116;11.590;2024-01-15T01:34:27;12.53;;;8.00;;
17372;SDS011;8803;48.116;11.590;2024-01-15T01:36:32;14.17;;;8.50;;
17372;SDS011;8803;48.116;11.590;2024-01-15T01:38:45;13.67;;;8.50;;
17372;SDS011;8803;48.116;11.590;2024-01-15T01:40:50;12.73;;;8.43;;
17372;SDS011;8803;48.116;11.590;2024-01-15T01:43:03;13.17;;;8.13;;
17372;SDS011;8803;48.116;11.590;2024-01-15T01:45:09;12.13;;;8.07;;
17372;SDS011;8803;48.116;11.590;2024-01-15T01:47:23;14.30;;;8.33;;
17372;SDS011;8803;48.116;11.590;2024-01-15T01:49:28;14.23;;;8.30;;
17372;SDS011;8803;48.116;11.590;2024-01-15T01:51:41;12.10;;;7.77;;
17372;SDS011;8803;48.116;11.590;2024-01-15T01:53:46;12.70;;;8.57;;
17372;SDS011;8803;48.116;11.590;2024-01-15T01:56:00;11.23;;;7.63;;
17372;SDS011;8803;48.116;11.590;2024-01-15T01:58:05;11.67;;;7.60;;
17372;SDS011;8803;48.116;11.590;2024-01-15T02:00:19;10.57;;;7.50;;
17372;SDS011;8803;48.116;11.590;2024-01-15T02:02:23;10.43;;;7.40;;
17372;SDS011;8803;48.116;11.590;2024-01-15T02:04:28;11.07;;;7.47;;
17372;SDS011;8803;48.116;11.590;2024-01-15T02:06:44;12.00;;;7.33;;
17372;SDS011;8803;48.116;11.590;2024-01-15T02:08:49;10.50;;;7.50;;
17372;SDS011;8803;48.116;11.590;2024-01-15T02:11:03;10.10;;;7.17;;
17372;SDS011;8803;48.116;11.590;2024-01-15T02:13:08;9.40;;;6.57;;
17372;SDS011;8803;48.116;11.590;2024-01-15T02:15:21;10.93;;;7.43;;
17372;SDS011;8803;48.116;11.590;2024-01-15T02:17:25;12.40;;;7.60;;
17372;SDS011;8803;48.116;11.590;2024-01-15T02:19:38;9.77;;;7.03;;
17372;SDS011;8803;48.116;11.590;2024-01-15T02:21:43;10.77;;;7.70;;
17372;SDS011;8803;48.116;11.590;2024-01-15T02:23:56;11.67;;;7.60;;
17372;SDS011;8803;48.116;11.590;2024-01-15T02:26:01;10.07;;;7.03;;
17372;SDS011;8803;48.116;11.590;2024-01-15T02:28:07;9.00;;;6.57;;
17372;SDS011;8803;48.116;11.590;2024-01-15T02:30:13;9.27;;;6.70;;
17372;SDS011;8803;48.116;11.590;2024-01-15T02:32:18;11.57;;;7.47;;
17372;SDS011;8803;48.116;11.590;2024-01-15T02:34:23;10.37;;;7.63;;
17372;SDS011;8803;48.116;11.590;2024-01-15T02:36:27;10.13;;;7.30;;
17372;SDS011;8803;48.116;11.590;2024-01-15T02:38:41;14.77;;;8.20;;
17372;SDS011;8803;48.116;11.590;2024-01-15T02:40:46;10.63;;;6.63;;
17372;SDS011;8803;48.116;11.590;2024-01-15T02:43:00;11.93;;;7.30;;
17372;SDS011;8803;48.116;11.590;2024-01-15T02:45:05;10.37;;;7.30;;
17372;SDS011;8803;48.116;11.590;2024-01-15T02:47:20;8.93;;;6.50;;
17372;SDS011;8803;48.116;11.590;2024-01-15T02:49:25;11.70;;;7.37;;
17372;SDS011;8803;48.116;11.590;2024-01-15T02:51:38;9.67;;;7.47;;
17372;SDS011;8803;48.116;11.590;2024-01-15T02:53:42;10.67;;;7.73;;
17372;SDS011;8803;48.116;11.590;2024-01-15T02:55:55;9.77;;;6.90;;
17372;SDS011;8803;48.116;11.590;2024-01-15T02:58:00;9.93;;;7.10;;
17372;SDS011;8803;48.116;11.590;2024-01-15T03:00:14;9.73;;;6.67;;
17372;SDS011;8803;48.116;11.590;2024-01-15T03:02:19;10.70;;;7.30;;
17372;SDS011;8803;48.116;11.590;2024-01-15T03:04:33;9.57;;;6.87;;
17372;SDS011;8803;48.116;11.590;2024-01-15T03:06:37;10.20;;;7.07;;
17372;SDS011;8803;48.116;11.590;2024-01-15T03:08:42;10.43;;;7.40;;
17372;SDS011;8803;48.116;11.590;2024-01-15T03:10:46;10.87;;;6.80;;
17372;SDS011;8803;48.116;11.590;2024-01-15T03:13:16;10.87;;;7.07;;
17372;SDS011;8803;48.116;11.590;2024-01-15T03:15:21;11.70;;;7.50;;
17372;SDS011;8803;48.116;11.590;2024-01-15T03:17:26;11.43;;;7.30;;
17372;SDS011;8803;48.116;11.590;2024-01-15T03:19:39;10.93;;;7.40;;
17372;SDS011;8803;48.116;11.590;2024-01-15T03:21:43;9.97;;;6.77;;
17372;SDS011;8803;48.116;11.590;2024-01-15T03:23:57;9.23;;;6.57;;
17372;SDS011;8803;48.116;11.590;2024-01-15T03:26:01;9.70;;;6.83;;
17372;SDS011;8803;48.116;11.590;2024-01-15T03:28:06;11.00;;;7.10;;
17372;SDS011;8803;48.116;11.590;2024-01-15T03:30:13;9.63;;;6.63;;
17372;SDS011;8803;48.116;11.590;2024-01-15T03:32:26;9.53;;;6.37;;
17372;SDS011;8803;48.116;11.590;2024-01-15T03:34:31;10.83;;;6.93;;
17372;SDS011;8803;48.116;11.590;2024-01-15T03:36:44;10.30;;;6.43;;
17372;SDS011;8803;48.116;11.590;2024-01-15T03:38:49;9.40;;;6.60;;
17372;SDS011;8803;48.116;11.590;2024-01-15T03:41:02;11.07;;;6.83;;
17372;SDS011;8803;48.116;11.590;2024-01-15T03:43:07;10.07;;;6.17;;
17372;SDS011;8803;48.116;11.590;2024-01-15T03:45:20;9.23;;;6.23;;
17372;SDS011;8803;48.116;11.590;2024-01-15T03:47:33;8.93;;;6.47;;
17372;SDS011;8803;48.116;11.590;2024-01-15T03:49:38;10.20;;;6.03;;
17372;SDS011;8803;48.116;11.590;2024-01-15T03:51:51;7.03;;;5.43;;
17372;SDS011;8803;48.116;11.590;2024-01-15T03:53:56;10.23;;;6.43;;
17372;SDS011;8803;48.116;11.590;2024-01-15T03:56:09;9.13;;;6.13;;
17372;SDS011;8803;48.116;11.590;2024-01-15T03:58:13;7.83;;;6.30;;
17372;SDS011;8803;48.116;11.590;2024-01-15T04:00:27;9.17;;;6.57;;
17372;SDS011;8803;48.116;11.590;2024-01-15T04:02:31;9.60;;;6.50;;
17372;SDS011;8803;48.116;11.590;2024-01-15T04:04:44;7.53;;;5.53;;
17372;SDS011;8803;48.116;11.590;2024-01-15T04:06:49;8.30;;;5.87;;
17372;SDS011;8803;48.116;11.590;2024-01-15T04:09:02;8.43;;;5.53;;
17372;SDS011;8803;48.116;11.590;2024-01-15T04:11:06;8.23;;;5.67;;
17372;SDS011;8803;48.116;11.590;2024-01-15T04:13:20;8.27;;;5.83;;
17372;SDS011;8803;48.116;11.590;2024-01-15T04:15:24;10.67;;;6.00;;
17372;SDS011;8803;48.116;11.590;2024-01-15T04:17:38;8.43;;;5.63;;
17372;SDS011;8803;48.116;11.590;2024-01-15T04:19:43;8.13;;;5.60;;
17372;SDS011;8803;48.116;11.590;2024-01-15T04:22:01;10.43;;;5.70;;
17372;SDS011;8803;48.116;11.590;2024-01-15T04:24:06;8.80;;;5.90;;
17372;SDS011;8803;48.116;11.590;2024-01-15T04:26:19;9.63;;;6.00;;
17372;SDS011;8803;48.116;11.590;2024-01-15T04:28:24;7.87;;;5.37;;
17372;SDS011;8803;48.116;11.590;2024-01-15T04:30:28;8.97;;;5.83;;
17372;SDS011;8803;48.116;11.590;2024-01-15T04:32:33;7.33;;;5.23;;
17372;SDS011;8803;48.116;11.590;2024-01-15T04:34:46;9.33;;;5.57;;
17372;SDS011;8803;48.116;11.590;2024-01-15T04:36:51;7.07;;;5.43;;
17372;SDS011;8803;48.116;11.590;2024-01-15T04:39:04;8.17;;;4.90;;
17372;SDS011;8803;48.116;11.590;2024-01-15T04:41:10;8.90;;;5.93;;
17372;SDS011;8803;48.116;11.590;2024-01-15T04:43:23;8.47;;;5.20;;
17372;SDS011;8803;48.116;11.590;2024-01-15T04:45:28;7.53;;;5.30;;
17372;SDS011;8803;48.116;11.590;2024-01-15T04:47:41;7.57;;;5.40;;
17372;SDS011;8803;48.116;11.590;2024-01-15T04:49:46;7.87;;;5.47;;
17372;SDS011;8803;48.116;11.590;2024-01-15T04:51:59;6.60;;;5.20;;
17372;SDS011;8803;48.116;11.590;2024-01-15T04:54:04;7.47;;;5.03;;
17372;SDS011;8803;48.116;11.590;2024-01-15T04:56:09;10.03;;;6.50;;
17372;SDS011;8803;48.116;11.590;2024-01-15T04:58:13;9.80;;;5.93;;
17372;SDS011;8803;48.116;11.590;2024-01-15T05:00:18;8.97;;;5.63;;
17372;SDS011;8803;48.116;11.590;2024-01-15T05:02:31;8.13;;;4.80;;
17372;SDS011;8803;48.116;11.590;2024-01-15T05:04:36;8.90;;;5.83;;
17372;SDS011;8803;48.116;11.590;2024-01-15T05:06:40;7.23;;;4.97;;
17372;SDS011;8803;48.116;11.590;2024-01-15T05:08:54;7.73;;;5.43;;
17372;SDS011;8803;48.116;11.590;2024-01-15T05:10:58;7.30;;;4.67;;
17372;SDS011;8803;48.116;11.590;2024-01-15T05:13:12;8.07;;;5.43;;
17372;SDS011;8803;48.116;11.590;2024-01-15T05:15:16;7.13;;;5.00;;
17372;SDS011;8803;48.116;11.590;2024-01-15T05:17:21;7.50;;;5.00;;
17372;SDS011;8803;48.116;11.590;2024-01-15T05:19:34;7.43;;;5.20;;
17372;SDS011;8803;48.116;11.590;2024-01-15T05:21:38;7.30;;;4.90;;
17372;SDS011;8803;48.116;11.590;2024-01-15T05:23:51;8.30;;;5.00;;
17372;SDS011;8803;48.116;11.590;2024-01-15T05:25:56;6.13;;;4.40;;
17372;SDS011;8803;48.116;11.590;2024-01-15T05:28:29;6.77;;;5.10;;
17372;SDS011;8803;48.116;11.590;2024-01-15T05:30:33;6.67;;;4.93;;
17372;SDS011;8803;48.116;11.590;2024-01-15T05:32:47;7.17;;;4.67;;
17372;SDS011;8803;48.116;11.590;2024-01-15T05:34:51;6.20;;;4.47;;
17372;SDS011;8803;48.116;11.590;2024-01-15T05:37:04;7.63;;;5.13;;
17372;SDS011;8803;48.116;11.590;2024-01-15T05:39:09;6.43;;;4.27;;
17372;SDS011;8803;48.116;11.590;2024-01-15T05:41:22;7.57;;;4.73;;
17372;SDS011;8803;48.116;11.590;2024-01-15T05:43:27;7.47;;;4.50;;
17372;SDS011;8803;48.116;11.590;2024-01-15T05:45:42;6.93;;;4.57;;
17372;SDS011;8803;48.116;11.590;2024-01-15T05:47:47;6.90;;;4.70;;
17372;SDS011;8803;48.116;11.590;2024-01-15T05:50:00;6.93;;;4.73;;
17372;SDS011;8803;48.116;11.590;2024-01-15T05:52:05;7.87;;;4.60;;
17372;SDS011;8803;48.116;11.590;2024-01-15T05:54:09;7.03;;;4.57;;
17372;SDS011;8803;48.116;11.590;2024-01-15T05:56:22;7.27;;;4.37;;
17372;SDS011;8803;48.116;11.590;2024-01-15T05:58:27;7.30;;;4.50;;
17372;SDS011;8803;48.116;11.590;2024-01-15T06:00:40;7.07;;;4.90;;
17372;SDS011;8803;48.116;11.590;2024-01-15T06:02:44;7.10;;;4.63;;
17372;SDS011;8803;48.116;11.590;2024-01-15T06:04:58;7.93;;;5.00;;
17372;SDS011;8803;48.116;11.590;2024-01-15T06:07:04;8.43;;;5.13;;
17372;SDS011;8803;48.116;11.590;2024-01-15T06:09:17;7.63;;;4.87;;
17372;SDS011;8803;48.116;11.590;2024-01-15T06:11:22;7.20;;;4.97;;
17372;SDS011;8803;48.116;11.590;2024-01-15T06:13:35;7.03;;;4.63;;
17372;SDS011;8803;48.116;11.590;2024-01-15T06:15:39;6.03;;;4.70;;
17372;SDS011;8803;48.116;11.590;2024-01-15T06:17:44;6.37;;;4.70;;
17372;SDS011;8803;48.116;11.590;2024-01-15T06:19:57;7.63;;;4.73;;
17372;SDS011;8803;48.116;11.590;2024-01-15T06:22:02;7.30;;;4.37;;
17372;SDS011;8803;48.116;11.590;2024-01-15T06:24:07;7.17;;;4.63;;
17372;SDS011;8803;48.116;11.590;2024-01-15T06:26:20;8.30;;;5.00;;
17372;SDS011;8803;48.116;11.590;2024-01-15T06:28:25;6.10;;;4.90;;
17372;SDS011;8803;48.116;11.590;2024-01-15T06:30:38;8.13;;;4.50;;
17372;SDS011;8803;48.116;11.590;2024-01-15T06:32:43;6.70;;;4.67;;
17372;SDS011;8803;48.116;11.590;2024-01-15T06:34:56;6.63;;;4.33;;
17372;SDS011;8803;48.116;11.590;2024-01-15T06:37:01;6.03;;;4.67;;
17372;SDS011;8803;48.116;11.590;2024-01-15T06:39:14;7.43;;;4.30;;
17372;SDS011;8803;48.116;11.590;2024-01-15T06:41:19;9.17;;;5.13;;
17372;SDS011;8803;48.116;11.590;2024-01-15T06:43:32;7.07;;;4.80;;
17372;SDS011;8803;48.116;11.590;2024-01-15T06:45:37;6.07;;;4.67;;
17372;SDS011;8803;48.116;11.590;2024-01-15T06:47:50;8.93;;;5.43;;
17372;SDS011;8803;48.116;11.590;2024-01-15T06:49:55;7.00;;;4.20;;
17372;SDS011;8803;48.116;11.590;2024-01-15T06:52:08;7.23;;;4.70;;
17372;SDS011;8803;48.116;11.590;2024-01-15T06:54:14;7.03;;;4.47;;
17372;SDS011;8803;48.116;11.590;2024-01-15T06:56:18;7.93;;;5.03;;
17372;SDS011;8803;48.116;11.590;2024-01-15T06:58:23;6.43;;;4.20;;
17372;SDS011;8803;48.116;11.590;2024-01-15T07:00:28;5.17;;;4.13;;
17372;SDS011;8803;48.116;11.590;2024-01-15T07:02:41;7.13;;;4.87;;
17372;SDS011;8803;48.116;11.590;2024-01-15T07:04:45;8.80;;;4.37;;
17372;SDS011;8803;48.116;11.590;2024-01-15T07:06:58;8.03;;;5.10;;
17372;SDS011;8803;48.116;11.590;2024-01-15T07:09:04;5.93;;;4.70;;
17372;SDS011;8803;48.116;11.590;2024-01-15T07:11:20;8.37;;;5.33;;
17372;SDS011;8803;48.116;11.590;2024-01-15T07:13:25;7.00;;;4.83;;
17372;SDS011;8803;48.116;11.590;2024-01-15T07:15:38;7.00;;;4.40;;
17372;SDS011;8803;48.116;11.590;2024-01-15T07:17:42;5.97;;;4.57;;
17372;SDS011;8803;48.116;11.590;2024-01-15T07:19:47;7.43;;;4.50;;
17372;SDS011;8803;48.116;11.590;2024-01-15T07:22:00;8.07;;;4.93;;
17372;SDS011;8803;48.116;11.590;2024-01-15T07:24:06;15.00;;;11.23;;
17372;SDS011;8803;48.116;11.590;2024-01-15T07:26:19;9.70;;;7.13;;
17372;SDS011;8803;48.116;11.590;2024-01-15T07:28:24;7.27;;;5.03;;
17372;SDS011;8803;48.116;11.590;2024-01-15T07:30:37;6.77;;;4.73;;
17372;SDS011;8803;48.116;11.590;2024-01-15T07:32:41;6.20;;;4.50;;
17372;SDS011;8803;48.116;11.590;2024-01-15T07:34:54;7.73;;;5.40;;
17372;SDS011;8803;48.116;11.590;2024-01-15T07:37:00;9.10;;;6.00;;
17372;SDS011;8803;48.116;11.590;2024-01-15T07:39:14;8.03;;;5.40;;
17372;SDS011;8803;48.116;11.590;2024-01-15T07:41:18;8.77;;;5.43;;
17372;SDS011;8803;48.116;11.590;2024-01-15T07:43:31;6.97;;;4.97;;
17372;SDS011;8803;48.116;11.590;2024-01-15T07:45:36;8.00;;;5.23;;
17372;SDS011;8803;48.116;11.590;2024-01-15T07:47:51;7.27;;;4.87;;
17372;SDS011;8803;48.116;11.590;2024-01-15T07:49:55;6.93;;;5.17;;
17372;SDS011;8803;48.116;11.590;2024-01-15T07:52:09;6.77;;;5.20;;
17372;SDS011;8803;48.116;11.590;2024-01-15T07:54:15;7.00;;;5.00;;
17372;SDS011;8803;48.116;11.590;2024-01-15T07:56:28;7.07;;;4.87;;
17372;SDS011;8803;48.116;11.590;2024-01-15T08:00:45;7.53;;;5.00;;
17372;SDS011;8803;48.116;11.590;2024-01-15T08:02:49;7.10;;;5.03;;
17372;SDS011;8803;48.116;11.590;2024-01-15T08:05:03;8.20;;;5.30;;
17372;SDS011;8803;48.116;11.590;2024-01-15T08:07:08;7.00;;;5.40;;
17372;SDS011;8803;48.116;11.590;2024-01-15T08:09:21;7.40;;;4.90;;
17372;SDS011;8803;48.116;11.590;2024-01-15T08:11:26;8.70;;;5.67;;
17372;SDS011;8803;48.116;11.590;2024-01-15T08:13:39;6.93;;;5.20;;
17372;SDS011;8803;48.116;11.590;2024-01-15T08:15:44;7.40;;;5.40;;
17372;SDS011;8803;48.116;11.590;2024-01-15T08:17:57;7.07;;;5.53;;
17372;SDS011;8803;48.116;11.590;2024-01-15T08:20:02;7.70;;;5.27;;
17372;SDS011;8803;48.116;11.590;2024-01-15T08:22:16;6.57;;;4.70;;
17372;SDS011;8803;48.116;11.590;2024-01-15T08:24:21;6.47;;;4.83;;
17372;SDS011;8803;48.116;11.590;2024-01-15T08:26:34;7.67;;;4.87;;
17372;SDS011;8803;48.116;11.590;2024-01-15T08:28:39;6.70;;;4.77;;
17372;SDS011;8803;48.116;11.590;2024-01-15T08:30:52;12.77;;;7.93;;
17372;SDS011;8803;48.116;11.590;2024-01-15T08:32:56;7.13;;;5.20;;
17372;SDS011;8803;48.116;11.590;2024-01-15T08:35:10;6.73;;;4.87;;
17372;SDS011;8803;48.116;11.590;2024-01-15T08:37:15;7.97;;;4.93;;
17372;SDS011;8803;48.116;11.590;2024-01-15T08:39:31;5.67;;;4.27;;
17372;SDS011;8803;48.116;11.590;2024-01-15T08:41:38;7.43;;;4.67;;
17372;SDS011;8803;48.116;11.590;2024-01-15T08:43:51;7.17;;;4.67;;
17372;SDS011;8803;48.116;11.590;2024-01-15T08:45:55;5.77;;;4.20;;
17372;SDS011;8803;48.116;11.590;2024-01-15T08:48:08;7.73;;;5.27;;
17372;SDS011;8803;48.116;11.590;2024-01-15T08:50:13;7.13;;;4.40;;
17372;SDS011;8803;48.116;11.590;2024-01-15T08:52:26;7.30;;;4.43;;
17372;SDS011;8803;48.116;11.590;2024-01-15T08:54:31;6.60;;;4.80;;
17372;SDS011;8803;48.116;11.590;2024-01-15T08:56:44;7.23;;;4.77;;
17372;SDS011;8803;48.116;11.590;2024-01-15T08:58:50;7.53;;;5.53;;
17372;SDS011;8803;48.116;11.590;2024-01-15T09:01:03;7.23;;;5.43;;
17372;SDS011;8803;48.116;11.590;2024-01-15T09:03:08;7.53;;;5.00;;
17372;SDS011;8803;48.116;11.590;2024-01-15T09:05:21;7.43;;;5.07;;
17372;SDS011;8803;48.116;11.590;2024-01-15T09:07:26;5.40;;;4.53;;
17372;SDS011;8803;48.116;11.590;2024-01-15T09:09:39;8.97;;;5.53;;
17372;SDS011;8803;48.116;11.590;2024-01-15T09:11:44;8.57;;;5.30;;
17372;SDS011;8803;48.116;11.590;2024-01-15T09:13:58;8.53;;;5.67;;
17372;SDS011;8803;48.116;11.590;2024-01-15T09:16:03;7.07;;;5.07;;
17372;SDS011;8803;48.116;11.590;2024-01-15T09:18:16;7.60;;;4.67;;
17372;SDS011;8803;48.116;11.590;2024-01-15T09:20:21;10.00;;;5.23;;
17372;SDS011;8803;48.116;11.590;2024-01-15T09:22:34;8.10;;;5.53;;
17372;SDS011;8803;48.116;11.590;2024-01-15T09:24:42;6.90;;;5.20;;
17372;SDS011;8803;48.116;11.590;2024-01-15T09:26:55;7.73;;;4.77;;
17372;SDS011;8803;48.116;11.590;2024-01-15T09:29:00;7.00;;;5.00;;
17372;SDS011;8803;48.116;11.590;2024-01-15T09:31:13;8.83;;;6.10;;
17372;SDS011;8803;48.116;11.590;2024-01-15T09:33:18;9.00;;;6.10;;
17372;SDS011;8803;48.116;11.590;2024-01-15T09:35:31;8.43;;;5.67;;
17372;SDS011;8803;48.116;11.590;2024-01-15T09:37:36;8.40;;;5.57;;
17372;SDS011;8803;48.116;11.590;2024-01-15T09:39:49;6.80;;;4.63;;
17372;SDS011;8803;48.116;11.590;2024-01-15T09:41:55;7.37;;;5.13;;
17372;SDS011;8803;48.116;11.590;2024-01-15T09:44:08;6.90;;;4.37;;
17372;SDS011;8803;48.116;11.590;2024-01-15T09:48:27;6.13;;;4.57;;
17372;SDS011;8803;48.116;11.590;2024-01-15T09:50:32;7.27;;;4.50;;
17372;SDS011;8803;48.116;11.590;2024-01-15T09:52:45;6.30;;;4.10;;
17372;SDS011;8803;48.116;11.590;2024-01-15T09:54:50;7.80;;;4.47;;
17372;SDS011;8803;48.116;11.590;2024-01-15T09:57:05;7.20;;;5.13;;
17372;SDS011;8803;48.116;11.590;2024-01-15T09:59:10;6.13;;;4.50;;
17372;SDS011;8803;48.116;11.590;2024-01-15T10:01:23;8.13;;;4.63;;
17372;SDS011;8803;48.116;11.590;2024-01-15T10:03:28;5.90;;;4.67;;
17372;SDS011;8803;48.116;11.590;2024-01-15T10:05:43;5.20;;;4.13;;
17372;SDS011;8803;48.116;11.590;2024-01-15T10:07:48;5.43;;;4.03;;
17372;SDS011;8803;48.116;11.590;2024-01-15T10:10:03;7.23;;;4.40;;
17372;SDS011;8803;48.116;11.590;2024-01-15T10:12:10;5.57;;;3.73;;
17372;SDS011;8803;48.116;11.590;2024-01-15T10:14:23;4.73;;;4.10;;
17372;SDS011;8803;48.116;11.590;2024-01-15T10:16:28;6.63;;;4.20;;
17372;SDS011;8803;48.116;11.590;2024-01-15T10:18:41;5.53;;;4.03;;
17372;SDS011;8803;48.116;11.590;2024-01-15T10:20:46;5.33;;;4.00;;
17372;SDS011;8803;48.116;11.590;2024-01-15T10:22:59;7.00;;;4.40;;
17372;SDS011;8803;48.116;11.590;2024-01-15T10:25:13;4.97;;;3.50;;
17372;SDS011;8803;48.116;11.590;2024-01-15T10:27:19;4.37;;;3.30;;
17372;SDS011;8803;48.116;11.590;2024-01-15T10:29:33;4.93;;;3.60;;
17372;SDS011;8803;48.116;11.590;2024-01-15T10:31:38;5.13;;;3.50;;
17372;SDS011;8803;48.116;11.590;2024-01-15T10:33:51;5.20;;;3.73;;
17372;SDS011;8803;48.116;11.590;2024-01-15T10:35:56;6.80;;;3.80;;
17372;SDS011;8803;48.116;11.590;2024-01-15T10:38:10;5.97;;;3.60;;
17372;SDS011;8803;48.116;11.590;2024-01-15T10:40:14;5.10;;;3.60;;
17372;SDS011;8803;48.116;11.590;2024-01-15T10:42:30;6.43;;;3.50;;
17372;SDS011;8803;48.116;11.590;2024-01-15T10:44:35;4.97;;;3.00;;
17372;SDS011;8803;48.116;11.590;2024-01-15T10:46:48;4.57;;;3.20;;
17372;SDS011;8803;48.116;11.590;2024-01-15T10:48:54;4.67;;;3.50;;
17372;SDS011;8803;48.116;11.590;2024-01-15T10:51:07;4.50;;;2.77;;
17372;SDS011;8803;48.116;11.590;2024-01-15T10:53:13;3.80;;;2.77;;
17372;SDS011;8803;48.116;11.590;2024-01-15T10:55:27;4.20;;;2.73;;
17372;SDS011;8803;48.116;11.590;2024-01-15T10:57:32;5.57;;;2.77;;
17372;SDS011;8803;48.116;11.590;2024-01-15T10:59:37;3.97;;;3.10;;
17372;SDS011;8803;48.116;11.590;2024-01-15T11:01:42;4.17;;;2.87;;
17372;SDS011;8803;48.116;11.590;2024-01-15T11:05:59;4.60;;;3.20;;
17372;SDS011;8803;48.116;11.590;2024-01-15T11:08:06;5.30;;;3.43;;
17372;SDS011;8803;48.116;11.590;2024-01-15T11:10:41;4.53;;;3.53;;
17372;SDS011;8803;48.116;11.590;2024-01-15T11:12:48;10.17;;;6.87;;
17372;SDS011;8803;48.116;11.590;2024-01-15T11:15:05;4.73;;;3.30;;
17372;SDS011;8803;48.116;11.590;2024-01-15T11:17:11;3.73;;;2.80;;
17372;SDS011;8803;48.116;11.590;2024-01-15T11:19:24;4.53;;;3.27;;
17372;SDS011;8803;48.116;11.590;2024-01-15T11:21:31;5.37;;;3.27;;
17372;SDS011;8803;48.116;11.590;2024-01-15T11:23:42;3.30;;;2.50;;
17372;SDS011;8803;48.116;11.590;2024-01-15T11:25:48;3.67;;;2.60;;
17372;SDS011;8803;48.116;11.590;2024-01-15T11:28:01;5.70;;;3.20;;
17372;SDS011;8803;48.116;11.590;2024-01-15T11:32:23;4.40;;;2.83;;
17372;SDS011;8803;48.116;11.590;2024-01-15T11:37:02;3.40;;;2.80;;
17372;SDS011;8803;48.116;11.590;2024-01-15T11:41:52;3.47;;;2.67;;
17372;SDS011;8803;48.116;11.590;2024-01-15T11:43:59;5.00;;;3.17;;
17372;SDS011;8803;48.116;11.590;2024-01-15T11:46:12;4.03;;;2.63;;
17372;SDS011;8803;48.116;11.590;2024-01-15T11:50:30;5.73;;;2.70;;
17372;SDS011;8803;48.116;11.590;2024-01-15T11:52:35;5.83;;;2.60;;
17372;SDS011;8803;48.116;11.590;2024-01-15T11:54:49;3.83;;;2.37;;
17372;SDS011;8803;48.116;11.590;2024-01-15T11:56:56;3.30;;;2.60;;
17372;SDS011;8803;48.116;11.590;2024-01-15T11:59:10;3.20;;;2.40;;
17372;SDS011;8803;48.116;11.590;2024-01-15T12:01:14;6.63;;;5.30;;
17372;SDS011;8803;48.116;11.590;2024-01-15T12:03:28;5.97;;;3.30;;
17372;SDS011;8803;48.116;11.590;2024-01-15T12:07:48;3.53;;;2.57;;
17372;SDS011;8803;48.116;11.590;2024-01-15T12:09:53;5.20;;;2.97;;
17372;SDS011;8803;48.116;11.590;2024-01-15T12:12:00;4.40;;;2.30;;
17372;SDS011;8803;48.116;11.590;2024-01-15T12:14:07;3.47;;;2.67;;
17372;SDS011;8803;48.116;11.590;2024-01-15T12:16:12;3.30;;;2.50;;
17372;SDS011;8803;48.116;11.590;2024-01-15T12:18:25;5.13;;;2.80;;
17372;SDS011;8803;48.116;11.590;2024-01-15T12:20:30;3.60;;;2.93;;
17372;SDS011;8803;48.116;11.590;2024-01-15T12:22:44;3.43;;;2.47;;
17372;SDS011;8803;48.116;11.590;2024-01-15T12:24:49;3.27;;;2.30;;
17372;SDS011;8803;48.116;11.590;2024-01-15T12:27:02;3.27;;;1.87;;
17372;SDS011;8803;48.116;11.590;2024-01-15T12:29:08;3.87;;;2.43;;
17372;SDS011;8803;48.116;11.590;2024-01-15T12:31:21;2.90;;;2.10;;
17372;SDS011;8803;48.116;11.590;2024-01-15T12:33:25;2.80;;;2.03;;
17372;SDS011;8803;48.116;11.590;2024-01-15T12:35:39;4.53;;;3.03;;
17372;SDS011;8803;48.116;11.590;2024-01-15T12:37:44;3.60;;;2.53;;
17372;SDS011;8803;48.116;11.590;2024-01-15T12:39:57;3.73;;;2.53;;
17372;SDS011;8803;48.116;11.590;2024-01-15T12:42:05;4.67;;;2.50;;
17372;SDS011;8803;48.116;11.590;2024-01-15T12:44:18;3.57;;;2.40;;
17372;SDS011;8803;48.116;11.590;2024-01-15T12:46:24;2.50;;;2.10;;
17372;SDS011;8803;48.116;11.590;2024-01-15T12:48:37;2.57;;;2.10;;
17372;SDS011;8803;48.116;11.590;2024-01-15T12:50:43;3.73;;;2.30;;
17372;SDS011;8803;48.116;11.590;2024-01-15T12:52:56;5.63;;;2.50;;
17372;SDS011;8803;48.116;11.590;2024-01-15T12:55:01;2.60;;;1.97;;
17372;SDS011;8803;48.116;11.590;2024-01-15T12:57:16;4.03;;;2.70;;
17372;SDS011;8803;48.116;11.590;2024-01-15T12:59:20;3.07;;;2.20;;
17372;SDS011;8803;48.116;11.590;2024-01-15T13:01:25;4.57;;;2.33;;
17372;SDS011;8803;48.116;11.590;2024-01-15T13:03:30;3.60;;;2.40;;
17372;SDS011;8803;48.116;11.590;2024-01-15T13:05:43;2.60;;;2.13;;
17372;SDS011;8803;48.116;11.590;2024-01-15T13:07:48;2.67;;;2.23;;
17372;SDS011;8803;48.116;11.590;2024-01-15T13:10:01;2.83;;;2.00;;
17372;SDS011;8803;48.116;11.590;2024-01-15T13:12:07;4.70;;;2.33;;